sensor_id;sensor_type;location;lat;lon;timestamp;temperature;humidity
1337;DHT22;662;48.814;9.318;2023-03-01T00:01:07;2.90;52.00
1337;DHT22;662;48.814;9.318;2023-03-01T00:03:33;2.90;52.00
1337;DHT22;662;48.814;9.318;2023-03-01T00:06:00;2.90;52.10
1337;DHT22;662;48.814;9.318;2023-03-01T00:08:26;2.90;52.30
1337;DHT22;662;48.814;9.318;2023-03-01T00:13:33;2.80;52.20
1337;DHT22;662;48.814;9.318;2023-03-01T00:16:11;2.90;52.30
1337;DHT22;662;48.814;9.318;2023-03-01T00:18:38;2.80;52.20
1337;DHT22;662;48.814;9.318;2023-03-01T00:21:04;2.80;52.60
1337;DHT22;662;48.814;9.318;2023-03-01T00:23:31;2.80;52.10
1337;DHT22;662;48.814;9.318;2023-03-01T00:25:57;2.80;52.20
1337;DHT22;662;48.814;9.318;2023-03-01T00:28:22;2.80;52.20
1337;DHT22;662;48.814;9.318;2023-03-01T00:30:48;2.70;52.20
1337;DHT22;662;48.814;9.318;2023-03-01T00:33:14;2.70;52.30
1337;DHT22;662;48.814;9.318;2023-03-01T00:35:40;2.70;52.50
1337;DHT22;662;48.814;9.318;2023-03-01T00:38:06;2.60;52.60
1337;DHT22;662;48.814;9.318;2023-03-01T00:40:34;2.60;52.70
1337;DHT22;662;48.814;9.318;2023-03-01T00:43:00;2.60;52.70
1337;DHT22;662;48.814;9.318;2023-03-01T00:45:26;2.50;52.70
1337;DHT22;662;48.814;9.318;2023-03-01T00:47:52;2.50;52.90
1337;DHT22;662;48.814;9.318;2023-03-01T00:50:18;2.40;53.00
1337;DHT22;662;48.814;9.318;2023-03-01T00:52:45;2.40;53.20
1337;DHT22;662;48.814;9.318;2023-03-01T00:55:11;2.40;53.20
1337;DHT22;662;48.814;9.318;2023-03-01T00:57:37;2.40;53.20
1337;DHT22;662;48.814;9.318;2023-03-01T01:00:04;2.40;53.30
1337;DHT22;662;48.814;9.318;2023-03-01T01:02:32;2.30;53.20
1337;DHT22;662;48.814;9.318;2023-03-01T01:04:58;2.30;53.30
1337;DHT22;662;48.814;9.318;2023-03-01T01:07:24;2.30;53.50
1337;DHT22;662;48.814;9.318;2023-03-01T01:09:49;2.30;53.50
1337;DHT22;662;48.814;9.318;2023-03-01T01:12:15;2.30;53.50
1337;DHT22;662;48.814;9.318;2023-03-01T01:14:41;2.30;53.50
1337;DHT22;662;48.814;9.318;2023-03-01T01:17:06;2.30;53.60
1337;DHT22;662;48.814;9.318;2023-03-01T01:19:32;2.30;53.50
1337;DHT22;662;48.814;9.318;2023-03-01T01:21:58;2.30;53.50
1337;DHT22;662;48.814;9.318;2023-03-01T01:24:23;2.30;53.60
1337;DHT22;662;48.814;9.318;2023-03-01T01:26:49;2.30;53.50
1337;DHT22;662;48.814;9.318;2023-03-01T01:29:15;2.30;53.50
1337;DHT22;662;48.814;9.318;2023-03-01T01:31:42;2.30;53.60
1337;DHT22;662;48.814;9.318;2023-03-01T01:34:17;2.20;53.50
1337;DHT22;662;48.814;9.318;2023-03-01T01:36:43;2.20;53.60
1337;DHT22;662;48.814;9.318;2023-03-01T01:39:09;2.20;53.70
1337;DHT22;662;48.814;9.318;2023-03-01T01:41:39;2.10;53.70
1337;DHT22;662;48.814;9.318;2023-03-01T01:44:25;2.10;53.90
1337;DHT22;662;48.814;9.318;2023-03-01T01:46:58;2.10;53.90
1337;DHT22;662;48.814;9.318;2023-03-01T01:52:07;2.10;54.00
1337;DHT22;662;48.814;9.318;2023-03-01T01:57:39;2.10;54.20
1337;DHT22;662;48.814;9.318;2023-03-01T02:00:19;2.10;54.40
1337;DHT22;662;48.814;9.318;2023-03-01T02:02:48;2.10;54.40
1337;DHT22;662;48.814;9.318;2023-03-01T02:07:46;2.20;54.60
1337;DHT22;662;48.814;9.318;2023-03-01T02:10:13;2.20;54.60
1337;DHT22;662;48.814;9.318;2023-03-01T02:12:40;2.20;54.60
1337;DHT22;662;48.814;9.318;2023-03-01T02:15:06;2.20;54.70
1337;DHT22;662;48.814;9.318;2023-03-01T02:17:32;2.30;54.70
1337;DHT22;662;48.814;9.318;2023-03-01T02:20:26;2.30;54.70
1337;DHT22;662;48.814;9.318;2023-03-01T02:22:54;2.30;54.70
1337;DHT22;662;48.814;9.318;2023-03-01T02:30:33;2.40;54.80
1337;DHT22;662;48.814;9.318;2023-03-01T02:33:00;2.50;54.90
1337;DHT22;662;48.814;9.318;2023-03-01T02:35:35;2.50;54.90
1337;DHT22;662;48.814;9.318;2023-03-01T02:38:03;2.50;54.90
1337;DHT22;662;48.814;9.318;2023-03-01T02:40:33;2.60;55.00
1337;DHT22;662;48.814;9.318;2023-03-01T02:42:59;2.60;55.00
1337;DHT22;662;48.814;9.318;2023-03-01T02:45:26;2.60;54.90
1337;DHT22;662;48.814;9.318;2023-03-01T02:47:56;2.70;55.00
1337;DHT22;662;48.814;9.318;2023-03-01T02:50:34;2.70;54.90
1337;DHT22;662;48.814;9.318;2023-03-01T02:55:54;2.70;54.80
1337;DHT22;662;48.814;9.318;2023-03-01T02:58:20;2.80;55.00
1337;DHT22;662;48.814;9.318;2023-03-01T03:00:46;2.70;54.90
1337;DHT22;662;48.814;9.318;2023-03-01T03:03:16;2.80;55.10
1337;DHT22;662;48.814;9.318;2023-03-01T03:05:42;2.80;55.00
1337;DHT22;662;48.814;9.318;2023-03-01T03:08:08;2.80;54.90
1337;DHT22;662;48.814;9.318;2023-03-01T03:10:39;2.90;55.00
1337;DHT22;662;48.814;9.318;2023-03-01T03:13:09;2.90;55.50
1337;DHT22;662;48.814;9.318;2023-03-01T03:15:35;2.90;55.10
1337;DHT22;662;48.814;9.318;2023-03-01T03:18:02;2.90;55.20
1337;DHT22;662;48.814;9.318;2023-03-01T03:20:28;2.90;55.20
1337;DHT22;662;48.814;9.318;2023-03-01T03:22:56;2.90;55.30
1337;DHT22;662;48.814;9.318;2023-03-01T03:25:24;2.90;55.30
1337;DHT22;662;48.814;9.318;2023-03-01T03:27:51;2.90;55.40
1337;DHT22;662;48.814;9.318;2023-03-01T03:30:23;2.90;55.40
1337;DHT22;662;48.814;9.318;2023-03-01T03:32:49;3.00;55.40
1337;DHT22;662;48.814;9.318;2023-03-01T03:35:27;2.90;55.30
1337;DHT22;662;48.814;9.318;2023-03-01T03:37:56;3.00;55.40
1337;DHT22;662;48.814;9.318;2023-03-01T03:40:36;3.00;55.30
1337;DHT22;662;48.814;9.318;2023-03-01T03:43:03;3.00;55.30
1337;DHT22;662;48.814;9.318;2023-03-01T03:45:29;3.00;55.20
1337;DHT22;662;48.814;9.318;2023-03-01T03:47:54;3.10;55.20
1337;DHT22;662;48.814;9.318;2023-03-01T03:50:20;3.10;55.10
1337;DHT22;662;48.814;9.318;2023-03-01T03:52:45;3.10;55.10
1337;DHT22;662;48.814;9.318;2023-03-01T03:55:12;3.10;55.00
1337;DHT22;662;48.814;9.318;2023-03-01T03:57:39;3.10;54.90
1337;DHT22;662;48.814;9.318;2023-03-01T04:00:05;3.10;54.80
1337;DHT22;662;48.814;9.318;2023-03-01T04:02:38;3.10;54.80
1337;DHT22;662;48.814;9.318;2023-03-01T04:05:04;3.10;54.80
1337;DHT22;662;48.814;9.318;2023-03-01T04:07:30;3.10;54.80
1337;DHT22;662;48.814;9.318;2023-03-01T04:09:56;3.20;54.90
1337;DHT22;662;48.814;9.318;2023-03-01T04:12:21;3.20;54.80
1337;DHT22;662;48.814;9.318;2023-03-01T04:14:48;3.20;54.80
1337;DHT22;662;48.814;9.318;2023-03-01T04:17:14;3.20;54.80
1337;DHT22;662;48.814;9.318;2023-03-01T04:19:39;3.30;54.90
1337;DHT22;662;48.814;9.318;2023-03-01T04:22:05;3.20;54.80
1337;DHT22;662;48.814;9.318;2023-03-01T04:24:35;3.30;55.30
1337;DHT22;662;48.814;9.318;2023-03-01T04:27:01;3.30;54.80
1337;DHT22;662;48.814;9.318;2023-03-01T04:29:27;3.30;54.70
1337;DHT22;662;48.814;9.318;2023-03-01T04:31:53;3.30;54.70
1337;DHT22;662;48.814;9.318;2023-03-01T04:34:18;3.30;54.70
1337;DHT22;662;48.814;9.318;2023-03-01T04:36:44;3.40;54.70
1337;DHT22;662;48.814;9.318;2023-03-01T04:39:10;3.40;54.70
1337;DHT22;662;48.814;9.318;2023-03-01T04:41:39;3.40;54.60
1337;DHT22;662;48.814;9.318;2023-03-01T04:44:06;3.40;54.50
1337;DHT22;662;48.814;9.318;2023-03-01T04:46:31;3.40;54.50
1337;DHT22;662;48.814;9.318;2023-03-01T04:48:57;3.40;54.40
1337;DHT22;662;48.814;9.318;2023-03-01T04:51:23;3.50;54.50
1337;DHT22;662;48.814;9.318;2023-03-01T04:53:49;3.50;54.50
1337;DHT22;662;48.814;9.318;2023-03-01T04:56:14;3.50;54.50
1337;DHT22;662;48.814;9.318;2023-03-01T04:58:40;3.50;54.40
1337;DHT22;662;48.814;9.318;2023-03-01T05:01:17;3.50;54.40
1337;DHT22;662;48.814;9.318;2023-03-01T05:03:49;3.50;54.30
1337;DHT22;662;48.814;9.318;2023-03-01T05:06:15;3.50;54.40
1337;DHT22;662;48.814;9.318;2023-03-01T05:08:41;3.50;54.30
1337;DHT22;662;48.814;9.318;2023-03-01T05:11:07;3.50;54.40
1337;DHT22;662;48.814;9.318;2023-03-01T05:13:38;3.60;54.40
1337;DHT22;662;48.814;9.318;2023-03-01T05:16:05;3.60;54.30
1337;DHT22;662;48.814;9.318;2023-03-01T05:18:32;3.60;54.40
1337;DHT22;662;48.814;9.318;2023-03-01T05:21:09;3.60;54.30
1337;DHT22;662;48.814;9.318;2023-03-01T05:23:35;3.60;54.40
1337;DHT22;662;48.814;9.318;2023-03-01T05:26:02;3.60;54.40
1337;DHT22;662;48.814;9.318;2023-03-01T05:28:29;3.60;54.40
1337;DHT22;662;48.814;9.318;2023-03-01T05:30:56;3.50;54.30
1337;DHT22;662;48.814;9.318;2023-03-01T05:33:22;3.50;54.90
1337;DHT22;662;48.814;9.318;2023-03-01T05:35:49;3.50;54.40
1337;DHT22;662;48.814;9.318;2023-03-01T05:38:16;3.50;54.50
1337;DHT22;662;48.814;9.318;2023-03-01T05:40:43;3.50;54.50
1337;DHT22;662;48.814;9.318;2023-03-01T05:43:09;3.50;54.50
1337;DHT22;662;48.814;9.318;2023-03-01T05:45:36;3.50;54.60
1337;DHT22;662;48.814;9.318;2023-03-01T05:48:03;3.50;54.60
1337;DHT22;662;48.814;9.318;2023-03-01T05:50:33;3.50;54.60
1337;DHT22;662;48.814;9.318;2023-03-01T05:53:25;3.50;54.60
1337;DHT22;662;48.814;9.318;2023-03-01T05:55:51;3.50;54.60
1337;DHT22;662;48.814;9.318;2023-03-01T05:58:19;3.50;54.60
1337;DHT22;662;48.814;9.318;2023-03-01T06:00:46;3.50;55.10
1337;DHT22;662;48.814;9.318;2023-03-01T06:03:14;3.40;54.50
1337;DHT22;662;48.814;9.318;2023-03-01T06:05:41;3.40;54.50
1337;DHT22;662;48.814;9.318;2023-03-01T06:08:08;3.50;54.60
1337;DHT22;662;48.814;9.318;2023-03-01T06:10:35;3.50;54.60
1337;DHT22;662;48.814;9.318;2023-03-01T06:13:01;3.50;54.60
1337;DHT22;662;48.814;9.318;2023-03-01T06:15:27;3.50;54.60
1337;DHT22;662;48.814;9.318;2023-03-01T06:17:54;3.50;54.60
1337;DHT22;662;48.814;9.318;2023-03-01T06:20:24;3.50;54.70
1337;DHT22;662;48.814;9.318;2023-03-01T06:22:50;3.50;54.70
1337;DHT22;662;48.814;9.318;2023-03-01T06:25:19;3.50;54.70
1337;DHT22;662;48.814;9.318;2023-03-01T06:27:45;3.50;54.70
1337;DHT22;662;48.814;9.318;2023-03-01T06:30:13;3.50;54.60
1337;DHT22;662;48.814;9.318;2023-03-01T06:32:40;3.50;54.60
1337;DHT22;662;48.814;9.318;2023-03-01T06:35:13;3.50;54.70
1337;DHT22;662;48.814;9.318;2023-03-01T06:37:39;3.50;54.70
1337;DHT22;662;48.814;9.318;2023-03-01T06:40:06;3.40;54.70
1337;DHT22;662;48.814;9.318;2023-03-01T06:42:35;3.40;54.70
1337;DHT22;662;48.814;9.318;2023-03-01T06:45:01;3.30;54.70
1337;DHT22;662;48.814;9.318;2023-03-01T06:47:26;3.30;54.80
1337;DHT22;662;48.814;9.318;2023-03-01T06:49:52;3.30;54.80
1337;DHT22;662;48.814;9.318;2023-03-01T06:52:17;3.30;54.80
1337;DHT22;662;48.814;9.318;2023-03-01T06:54:43;3.30;54.80
1337;DHT22;662;48.814;9.318;2023-03-01T06:57:08;3.30;54.80
1337;DHT22;662;48.814;9.318;2023-03-01T06:59:34;3.30;54.80
1337;DHT22;662;48.814;9.318;2023-03-01T07:02:00;3.30;54.80
1337;DHT22;662;48.814;9.318;2023-03-01T07:04:25;3.30;54.80
1337;DHT22;662;48.814;9.318;2023-03-01T07:06:54;3.40;54.90
1337;DHT22;662;48.814;9.318;2023-03-01T07:09:21;3.40;54.80
1337;DHT22;662;48.814;9.318;2023-03-01T07:11:48;3.40;54.90
1337;DHT22;662;48.814;9.318;2023-03-01T07:14:13;3.40;54.80
1337;DHT22;662;48.814;9.318;2023-03-01T07:16:39;3.40;54.80
1337;DHT22;662;48.814;9.318;2023-03-01T07:19:05;3.40;54.80
1337;DHT22;662;48.814;9.318;2023-03-01T07:21:31;3.40;54.80
1337;DHT22;662;48.814;9.318;2023-03-01T07:23:57;3.40;54.80
1337;DHT22;662;48.814;9.318;2023-03-01T07:26:22;3.40;54.80
1337;DHT22;662;48.814;9.318;2023-03-01T07:28:48;3.50;54.90
1337;DHT22;662;48.814;9.318;2023-03-01T07:31:14;3.50;54.90
1337;DHT22;662;48.814;9.318;2023-03-01T07:33:40;3.50;54.80
1337;DHT22;662;48.814;9.318;2023-03-01T07:36:06;3.50;54.70
1337;DHT22;662;48.814;9.318;2023-03-01T07:38:32;3.60;54.80
1337;DHT22;662;48.814;9.318;2023-03-01T07:40:59;3.70;54.80
1337;DHT22;662;48.814;9.318;2023-03-01T07:43:25;3.70;54.70
1337;DHT22;662;48.814;9.318;2023-03-01T07:45:50;3.70;54.60
1337;DHT22;662;48.814;9.318;2023-03-01T07:48:16;3.70;54.50
1337;DHT22;662;48.814;9.318;2023-03-01T07:50:42;3.70;54.40
1337;DHT22;662;48.814;9.318;2023-03-01T07:53:09;3.80;54.40
1337;DHT22;662;48.814;9.318;2023-03-01T07:55:34;3.80;54.40
1337;DHT22;662;48.814;9.318;2023-03-01T07:58:00;3.80;54.40
1337;DHT22;662;48.814;9.318;2023-03-01T08:00:25;3.90;54.30
1337;DHT22;662;48.814;9.318;2023-03-01T08:02:51;3.90;54.30
1337;DHT22;662;48.814;9.318;2023-03-01T08:05:17;3.90;54.20
1337;DHT22;662;48.814;9.318;2023-03-01T08:07:42;4.00;54.10
1337;DHT22;662;48.814;9.318;2023-03-01T08:10:09;4.00;54.00
1337;DHT22;662;48.814;9.318;2023-03-01T08:12:34;4.00;53.80
1337;DHT22;662;48.814;9.318;2023-03-01T08:15:00;4.10;53.80
1337;DHT22;662;48.814;9.318;2023-03-01T08:17:26;4.10;53.70
1337;DHT22;662;48.814;9.318;2023-03-01T08:19:51;4.20;53.70
1337;DHT22;662;48.814;9.318;2023-03-01T08:22:17;4.20;53.60
1337;DHT22;662;48.814;9.318;2023-03-01T08:24:42;4.30;53.50
1337;DHT22;662;48.814;9.318;2023-03-01T08:27:08;4.50;53.50
1337;DHT22;662;48.814;9.318;2023-03-01T08:29:34;4.50;53.40
1337;DHT22;662;48.814;9.318;2023-03-01T08:32:00;4.60;53.30
1337;DHT22;662;48.814;9.318;2023-03-01T08:34:26;4.70;53.30
1337;DHT22;662;48.814;9.318;2023-03-01T08:36:51;4.90;53.10
1337;DHT22;662;48.814;9.318;2023-03-01T08:39:19;5.30;52.90
1337;DHT22;662;48.814;9.318;2023-03-01T08:41:46;6.30;52.70
1337;DHT22;662;48.814;9.318;2023-03-01T08:44:13;8.00;50.80
1337;DHT22;662;48.814;9.318;2023-03-01T08:46:40;9.60;47.40
1337;DHT22;662;48.814;9.318;2023-03-01T08:49:08;10.80;44.40
1337;DHT22;662;48.814;9.318;2023-03-01T08:51:34;12.00;42.10
1337;DHT22;662;48.814;9.318;2023-03-01T08:54:21;12.70;40.30
1337;DHT22;662;48.814;9.318;2023-03-01T08:56:47;13.50;38.80
1337;DHT22;662;48.814;9.318;2023-03-01T08:59:15;14.10;37.40
1337;DHT22;662;48.814;9.318;2023-03-01T09:01:41;14.70;36.70
1337;DHT22;662;48.814;9.318;2023-03-01T09:04:09;15.50;35.70
1337;DHT22;662;48.814;9.318;2023-03-01T09:06:35;16.10;34.60
1337;DHT22;662;48.814;9.318;2023-03-01T09:09:02;16.80;34.00
1337;DHT22;662;48.814;9.318;2023-03-01T09:11:28;17.50;33.20
1337;DHT22;662;48.814;9.318;2023-03-01T09:13:54;17.80;31.80
1337;DHT22;662;48.814;9.318;2023-03-01T09:16:21;18.10;30.80
1337;DHT22;662;48.814;9.318;2023-03-01T09:18:51;18.60;30.50
1337;DHT22;662;48.814;9.318;2023-03-01T09:21:19;19.00;29.40
1337;DHT22;662;48.814;9.318;2023-03-01T09:23:46;19.00;28.60
1337;DHT22;662;48.814;9.318;2023-03-01T09:26:15;18.90;28.70
1337;DHT22;662;48.814;9.318;2023-03-01T09:28:42;18.80;28.60
1337;DHT22;662;48.814;9.318;2023-03-01T09:31:08;18.60;28.30
1337;DHT22;662;48.814;9.318;2023-03-01T09:33:33;18.70;28.30
1337;DHT22;662;48.814;9.318;2023-03-01T09:36:01;18.60;27.70
1337;DHT22;662;48.814;9.318;2023-03-01T09:38:27;18.30;27.80
1337;DHT22;662;48.814;9.318;2023-03-01T09:40:53;18.60;28.00
1337;DHT22;662;48.814;9.318;2023-03-01T09:45:46;18.90;27.70
1337;DHT22;662;48.814;9.318;2023-03-01T09:48:18;19.00;27.50
1337;DHT22;662;48.814;9.318;2023-03-01T09:50:44;19.20;27.60
1337;DHT22;662;48.814;9.318;2023-03-01T09:53:21;19.60;27.80
1337;DHT22;662;48.814;9.318;2023-03-01T09:56:22;19.90;27.40
1337;DHT22;662;48.814;9.318;2023-03-01T09:59:07;20.10;26.90
1337;DHT22;662;48.814;9.318;2023-03-01T10:01:56;20.20;26.50
1337;DHT22;662;48.814;9.318;2023-03-01T10:09:46;19.10;26.20
1337;DHT22;662;48.814;9.318;2023-03-01T10:12:17;18.10;26.60
1337;DHT22;662;48.814;9.318;2023-03-01T10:14:57;17.00;27.20
1337;DHT22;662;48.814;9.318;2023-03-01T10:20:58;14.90;29.10
1337;DHT22;662;48.814;9.318;2023-03-01T10:23:25;13.70;30.00
1337;DHT22;662;48.814;9.318;2023-03-01T10:31:22;11.50;33.30
1337;DHT22;662;48.814;9.318;2023-03-01T10:33:48;11.00;34.30
1337;DHT22;662;48.814;9.318;2023-03-01T10:36:18;10.60;35.40
1337;DHT22;662;48.814;9.318;2023-03-01T10:38:50;10.30;36.30
1337;DHT22;662;48.814;9.318;2023-03-01T10:41:17;9.90;37.80
1337;DHT22;662;48.814;9.318;2023-03-01T10:43:50;9.60;38.40
1337;DHT22;662;48.814;9.318;2023-03-01T10:49:19;9.10;39.50
1337;DHT22;662;48.814;9.318;2023-03-01T10:51:48;9.00;40.10
1337;DHT22;662;48.814;9.318;2023-03-01T10:57:09;8.80;41.00
1337;DHT22;662;48.814;9.318;2023-03-01T11:00:02;8.80;41.40
1337;DHT22;662;48.814;9.318;2023-03-01T11:02:30;8.70;41.40
1337;DHT22;662;48.814;9.318;2023-03-01T11:05:22;8.70;41.50
1337;DHT22;662;48.814;9.318;2023-03-01T11:07:53;8.70;41.40
1337;DHT22;662;48.814;9.318;2023-03-01T11:10:22;8.70;41.40
1337;DHT22;662;48.814;9.318;2023-03-01T11:12:48;8.70;41.70
1337;DHT22;662;48.814;9.318;2023-03-01T11:15:22;8.60;41.90
1337;DHT22;662;48.814;9.318;2023-03-01T11:17:48;8.60;42.00
1337;DHT22;662;48.814;9.318;2023-03-01T11:20:34;8.60;42.80
1337;DHT22;662;48.814;9.318;2023-03-01T11:23:14;8.70;42.20
1337;DHT22;662;48.814;9.318;2023-03-01T11:26:02;8.70;42.30
1337;DHT22;662;48.814;9.318;2023-03-01T11:28:30;8.80;42.80
1337;DHT22;662;48.814;9.318;2023-03-01T11:31:00;9.20;42.40
1337;DHT22;662;48.814;9.318;2023-03-01T11:33:48;9.70;41.80
1337;DHT22;662;48.814;9.318;2023-03-01T11:36:41;10.50;40.20
1337;DHT22;662;48.814;9.318;2023-03-01T11:45:10;12.80;37.20
1337;DHT22;662;48.814;9.318;2023-03-01T11:50:42;13.90;34.60
1337;DHT22;662;48.814;9.318;2023-03-01T11:56:22;15.00;33.80
1337;DHT22;662;48.814;9.318;2023-03-01T12:04:44;15.70;30.90
1337;DHT22;662;48.814;9.318;2023-03-01T12:07:25;15.70;31.00
1337;DHT22;662;48.814;9.318;2023-03-01T12:15:52;16.20;31.30
1337;DHT22;662;48.814;9.318;2023-03-01T12:21:18;16.60;30.70
1337;DHT22;662;48.814;9.318;2023-03-01T12:37:42;18.10;30.00
1337;DHT22;662;48.814;9.318;2023-03-01T12:43:16;18.50;29.10
1337;DHT22;662;48.814;9.318;2023-03-01T12:51:10;18.80;28.60
1337;DHT22;662;48.814;9.318;2023-03-01T12:53:42;18.80;28.40
1337;DHT22;662;48.814;9.318;2023-03-01T12:56:11;18.80;28.10
1337;DHT22;662;48.814;9.318;2023-03-01T12:58:46;18.70;28.30
1337;DHT22;662;48.814;9.318;2023-03-01T13:04:17;18.60;28.50
1337;DHT22;662;48.814;9.318;2023-03-01T13:09:46;18.80;28.10
1337;DHT22;662;48.814;9.318;2023-03-01T13:15:26;19.20;28.70
1337;DHT22;662;48.814;9.318;2023-03-01T13:26:09;19.80;27.70
1337;DHT22;662;48.814;9.318;2023-03-01T13:28:46;20.00;27.60
1337;DHT22;662;48.814;9.318;2023-03-01T13:33:41;20.40;27.20
1337;DHT22;662;48.814;9.318;2023-03-01T13:36:08;20.40;26.70
1337;DHT22;662;48.814;9.318;2023-03-01T13:41:16;20.10;26.60
1337;DHT22;662;48.814;9.318;2023-03-01T13:43:44;20.00;26.60
1337;DHT22;662;48.814;9.318;2023-03-01T13:46:20;19.70;26.60
1337;DHT22;662;48.814;9.318;2023-03-01T13:48:53;19.60;26.80
1337;DHT22;662;48.814;9.318;2023-03-01T13:51:24;19.50;26.90
1337;DHT22;662;48.814;9.318;2023-03-01T13:53:51;19.40;27.10
1337;DHT22;662;48.814;9.318;2023-03-01T13:56:23;19.20;27.00
1337;DHT22;662;48.814;9.318;2023-03-01T14:01:31;18.90;27.50
1337;DHT22;662;48.814;9.318;2023-03-01T14:03:59;18.80;27.60
1337;DHT22;662;48.814;9.318;2023-03-01T14:06:30;18.70;27.50
1337;DHT22;662;48.814;9.318;2023-03-01T14:09:04;18.60;27.80
1337;DHT22;662;48.814;9.318;2023-03-01T14:17:17;18.40;27.90
1337;DHT22;662;48.814;9.318;2023-03-01T14:19:46;18.40;28.20
1337;DHT22;662;48.814;9.318;2023-03-01T14:22:23;18.20;28.20
1337;DHT22;662;48.814;9.318;2023-03-01T14:25:05;18.10;28.20
1337;DHT22;662;48.814;9.318;2023-03-01T14:27:39;18.00;28.40
1337;DHT22;662;48.814;9.318;2023-03-01T14:30:14;18.00;28.50
1337;DHT22;662;48.814;9.318;2023-03-01T14:32:40;17.90;28.60
1337;DHT22;662;48.814;9.318;2023-03-01T14:35:21;17.80;28.70
1337;DHT22;662;48.814;9.318;2023-03-01T14:37:46;17.80;29.00
1337;DHT22;662;48.814;9.318;2023-03-01T14:40:24;17.90;29.10
1337;DHT22;662;48.814;9.318;2023-03-01T14:42:50;17.90;29.00
1337;DHT22;662;48.814;9.318;2023-03-01T14:45:16;17.70;29.00
1337;DHT22;662;48.814;9.318;2023-03-01T14:47:44;17.40;29.00
1337;DHT22;662;48.814;9.318;2023-03-01T14:52:51;16.80;29.50
1337;DHT22;662;48.814;9.318;2023-03-01T14:57:57;16.20;30.00
1337;DHT22;662;48.814;9.318;2023-03-01T15:00:28;15.90;30.50
1337;DHT22;662;48.814;9.318;2023-03-01T15:02:56;15.50;30.80
1337;DHT22;662;48.814;9.318;2023-03-01T15:05:30;15.20;31.20
1337;DHT22;662;48.814;9.318;2023-03-01T15:08:01;14.80;31.70
1337;DHT22;662;48.814;9.318;2023-03-01T15:10:31;14.60;32.20
1337;DHT22;662;48.814;9.318;2023-03-01T15:13:14;14.20;32.50
1337;DHT22;662;48.814;9.318;2023-03-01T15:15:44;13.90;32.90
1337;DHT22;662;48.814;9.318;2023-03-01T15:18:22;13.50;33.50
1337;DHT22;662;48.814;9.318;2023-03-01T15:20:51;13.20;34.00
1337;DHT22;662;48.814;9.318;2023-03-01T15:23:37;12.80;34.60
1337;DHT22;662;48.814;9.318;2023-03-01T15:26:04;12.50;35.10
1337;DHT22;662;48.814;9.318;2023-03-01T15:28:34;12.30;35.40
1337;DHT22;662;48.814;9.318;2023-03-01T15:31:11;12.10;36.00
1337;DHT22;662;48.814;9.318;2023-03-01T15:33:38;12.00;36.40
1337;DHT22;662;48.814;9.318;2023-03-01T15:36:31;11.80;36.60
1337;DHT22;662;48.814;9.318;2023-03-01T15:38:59;11.70;36.90
1337;DHT22;662;48.814;9.318;2023-03-01T15:41:31;11.40;37.10
1337;DHT22;662;48.814;9.318;2023-03-01T15:43:58;11.20;37.50
1337;DHT22;662;48.814;9.318;2023-03-01T15:46:33;11.10;37.70
1337;DHT22;662;48.814;9.318;2023-03-01T15:49:04;11.00;37.90
1337;DHT22;662;48.814;9.318;2023-03-01T15:51:34;10.90;38.20
1337;DHT22;662;48.814;9.318;2023-03-01T15:54:08;10.70;38.30
1337;DHT22;662;48.814;9.318;2023-03-01T15:56:39;10.70;38.60
1337;DHT22;662;48.814;9.318;2023-03-01T15:59:04;10.60;38.70
1337;DHT22;662;48.814;9.318;2023-03-01T16:01:32;10.50;38.80
1337;DHT22;662;48.814;9.318;2023-03-01T16:03:59;10.40;38.90
1337;DHT22;662;48.814;9.318;2023-03-01T16:06:25;10.30;39.10
1337;DHT22;662;48.814;9.318;2023-03-01T16:08:50;10.20;39.10
1337;DHT22;662;48.814;9.318;2023-03-01T16:11:20;10.10;39.70
1337;DHT22;662;48.814;9.318;2023-03-01T16:13:46;10.00;39.30
1337;DHT22;662;48.814;9.318;2023-03-01T16:16:13;9.90;40.20
1337;DHT22;662;48.814;9.318;2023-03-01T16:18:42;9.80;40.30
1337;DHT22;662;48.814;9.318;2023-03-01T16:21:22;9.70;40.40
1337;DHT22;662;48.814;9.318;2023-03-01T16:23:48;9.60;40.50
1337;DHT22;662;48.814;9.318;2023-03-01T16:26:14;9.60;40.70
1337;DHT22;662;48.814;9.318;2023-03-01T16:28:43;9.60;40.90
1337;DHT22;662;48.814;9.318;2023-03-01T16:31:11;9.60;40.90
1337;DHT22;662;48.814;9.318;2023-03-01T16:33:37;9.50;40.90
1337;DHT22;662;48.814;9.318;2023-03-01T16:36:11;9.50;41.00
1337;DHT22;662;48.814;9.318;2023-03-01T16:38:38;9.40;41.00
1337;DHT22;662;48.814;9.318;2023-03-01T16:41:04;9.40;41.20
1337;DHT22;662;48.814;9.318;2023-03-01T16:43:30;9.40;41.30
1337;DHT22;662;48.814;9.318;2023-03-01T16:45:57;9.40;41.30
1337;DHT22;662;48.814;9.318;2023-03-01T16:48:24;9.30;41.40
1337;DHT22;662;48.814;9.318;2023-03-01T16:51:00;9.30;41.40
1337;DHT22;662;48.814;9.318;2023-03-01T16:53:27;9.30;41.50
1337;DHT22;662;48.814;9.318;2023-03-01T16:55:58;9.30;41.60
1337;DHT22;662;48.814;9.318;2023-03-01T16:58:23;9.30;41.60
1337;DHT22;662;48.814;9.318;2023-03-01T17:00:53;9.20;41.70
1337;DHT22;662;48.814;9.318;2023-03-01T17:03:20;9.20;41.70
1337;DHT22;662;48.814;9.318;2023-03-01T17:05:46;9.10;41.70
1337;DHT22;662;48.814;9.318;2023-03-01T17:08:12;9.10;41.80
1337;DHT22;662;48.814;9.318;2023-03-01T17:10:38;9.10;42.00
1337;DHT22;662;48.814;9.318;2023-03-01T17:13:03;9.00;42.00
1337;DHT22;662;48.814;9.318;2023-03-01T17:15:29;9.00;42.10
1337;DHT22;662;48.814;9.318;2023-03-01T17:17:55;8.90;42.20
1337;DHT22;662;48.814;9.318;2023-03-01T17:20:20;8.90;42.20
1337;DHT22;662;48.814;9.318;2023-03-01T17:22:46;8.90;42.80
1337;DHT22;662;48.814;9.318;2023-03-01T17:25:12;8.90;42.40
1337;DHT22;662;48.814;9.318;2023-03-01T17:27:38;8.90;42.40
1337;DHT22;662;48.814;9.318;2023-03-01T17:30:06;8.90;42.40
1337;DHT22;662;48.814;9.318;2023-03-01T17:32:32;8.80;42.40
1337;DHT22;662;48.814;9.318;2023-03-01T17:34:57;8.80;42.60
1337;DHT22;662;48.814;9.318;2023-03-01T17:37:23;8.80;42.70
1337;DHT22;662;48.814;9.318;2023-03-01T17:39:49;8.80;42.80
1337;DHT22;662;48.814;9.318;2023-03-01T17:42:14;8.80;43.00
1337;DHT22;662;48.814;9.318;2023-03-01T17:44:40;8.70;43.50
1337;DHT22;662;48.814;9.318;2023-03-01T17:47:06;8.70;43.10
1337;DHT22;662;48.814;9.318;2023-03-01T17:49:32;8.70;43.20
1337;DHT22;662;48.814;9.318;2023-03-01T17:51:58;8.70;43.30
1337;DHT22;662;48.814;9.318;2023-03-01T17:54:23;8.60;43.30
1337;DHT22;662;48.814;9.318;2023-03-01T17:56:50;8.60;43.40
1337;DHT22;662;48.814;9.318;2023-03-01T17:59:18;8.60;43.60
1337;DHT22;662;48.814;9.318;2023-03-01T18:01:44;8.50;43.60
1337;DHT22;662;48.814;9.318;2023-03-01T18:04:10;8.50;43.70
1337;DHT22;662;48.814;9.318;2023-03-01T18:06:36;8.50;43.90
1337;DHT22;662;48.814;9.318;2023-03-01T18:09:02;8.50;44.00
1337;DHT22;662;48.814;9.318;2023-03-01T18:11:28;8.40;44.00
1337;DHT22;662;48.814;9.318;2023-03-01T18:13:54;8.40;44.20
1337;DHT22;662;48.814;9.318;2023-03-01T18:16:21;8.30;44.20
1337;DHT22;662;48.814;9.318;2023-03-01T18:18:51;8.30;44.30
1337;DHT22;662;48.814;9.318;2023-03-01T18:21:17;8.30;44.40
1337;DHT22;662;48.814;9.318;2023-03-01T18:23:42;8.20;44.40
1337;DHT22;662;48.814;9.318;2023-03-01T18:26:10;8.20;44.60
1337;DHT22;662;48.814;9.318;2023-03-01T18:28:37;8.10;44.70
1337;DHT22;662;48.814;9.318;2023-03-01T18:31:06;8.10;44.80
1337;DHT22;662;48.814;9.318;2023-03-01T18:33:36;8.00;44.80
1337;DHT22;662;48.814;9.318;2023-03-01T18:36:03;8.00;45.00
1337;DHT22;662;48.814;9.318;2023-03-01T18:38:29;7.90;45.10
1337;DHT22;662;48.814;9.318;2023-03-01T18:40:55;7.90;45.20
1337;DHT22;662;48.814;9.318;2023-03-01T18:43:22;7.90;45.40
1337;DHT22;662;48.814;9.318;2023-03-01T18:45:48;7.90;45.50